createdAt,value
2016-11-19T00:00:03.456Z,53.31
2016-11-19T00:01:03.476Z,53.58
2016-11-19T00:02:03.509Z,53.41
2016-11-19T00:03:03.537Z,53.51
2016-11-19T00:04:03.250Z,53.31
2016-11-19T00:05:03.588Z,53.41
2016-11-19T00:06:03.609Z,53.39
2016-11-19T00:07:03.341Z,53.67
2016-11-19T00:08:03.666Z,53.67
2016-11-19T00:09:03.698Z,53.67
2016-11-19T00:10:03.727Z,53.29
2016-11-19T00:11:03.752Z,53.39
2016-11-19T00:12:03.785Z,53.29
2016-11-19T00:13:03.801Z,53.39
2016-11-19T00:14:03.526Z,53.58
2016-11-19T00:15:03.871Z,53.48
2016-11-19T00:16:03.897Z,53.29
2016-11-19T00:17:03.916Z,53.29
2016-11-19T00:18:03.941Z,53.29
2016-11-19T00:19:03.975Z,53.29
2016-11-19T00:20:03.691Z,53.29
2016-11-19T00:21:04.027Z,53.39
2016-11-19T00:22:04.051Z,53.77
2016-11-19T00:23:04.078Z,53.58
2016-11-19T00:24:04.110Z,53.39
2016-11-19T00:25:03.838Z,53.39
2016-11-19T00:26:04.163Z,53.29
2016-11-19T00:27:03.896Z,53.48
2016-11-19T00:28:04.234Z,53.39
2016-11-19T00:29:36.043Z,53.48
2016-11-19T00:30:04.279Z,53.48
2016-11-19T00:31:04.307Z,53.67
2016-11-19T00:32:04.027Z,53.77
2016-11-19T00:33:04.052Z,53.67
2016-11-19T00:34:04.389Z,53.77
2016-11-19T00:35:04.410Z,53.87
2016-11-19T00:36:04.434Z,53.77
2016-11-19T00:37:04.487Z,53.58
2016-11-19T00:38:04.492Z,53.67
2016-11-19T00:39:04.223Z,53.96
2016-11-19T00:40:04.550Z,53.77
2016-11-19T00:41:04.575Z,53.77
2016-11-19T00:42:04.608Z,53.58
2016-11-19T00:43:04.341Z,53.96
2016-11-19T00:44:04.357Z,53.77
2016-11-19T00:45:04.709Z,53.96
2016-11-19T00:46:04.715Z,54.06
2016-11-19T00:47:04.759Z,54.16
2016-11-19T00:48:04.467Z,53.67
2016-11-19T00:49:04.488Z,53.67
2016-11-19T00:50:04.826Z,53.58
2016-11-19T00:51:04.867Z,54.16
2016-11-19T00:52:04.893Z,53.77
2016-11-19T00:53:04.904Z,53.58
2016-11-19T00:54:04.945Z,53.67
2016-11-19T00:55:04.982Z,53.67
2016-11-19T00:56:05.002Z,53.87
2016-11-19T00:57:05.035Z,53.77
2016-11-19T00:58:05.048Z,53.67
2016-11-19T00:59:05.093Z,53.67
2016-11-19T01:00:05.101Z,53.87
2016-11-19T01:01:05.146Z,53.96
2016-11-19T01:02:05.168Z,53.58
2016-11-19T01:03:05.195Z,53.87
2016-11-19T01:04:04.922Z,53.96
2016-11-19T01:05:04.949Z,53.87
2016-11-19T01:06:05.274Z,53.58
2016-11-19T01:07:05.314Z,54.06
2016-11-19T01:08:05.019Z,53.29
2016-11-19T01:09:05.352Z,53.96
2016-11-19T01:10:05.089Z,53.96
2016-11-19T01:11:05.410Z,53.77
2016-11-19T01:12:05.438Z,53.74
2016-11-19T01:13:05.172Z,53.58
2016-11-19T01:14:05.496Z,53.77
2016-11-19T01:15:05.220Z,53.77
2016-11-19T01:16:05.554Z,53.55
2016-11-19T01:17:05.291Z,53.67
2016-11-19T01:18:05.615Z,53.67
2016-11-19T01:19:05.643Z,53.65
2016-11-19T01:20:05.664Z,53.58
2016-11-19T01:21:05.693Z,53.45
2016-11-19T01:22:05.722Z,53.48
2016-11-19T01:23:05.745Z,53.77
2016-11-19T01:24:05.767Z,53.67
2016-11-19T01:25:05.800Z,53.39
2016-11-19T01:26:05.825Z,53.74
2016-11-19T01:27:05.868Z,53.65
2016-11-19T01:28:05.874Z,53.48
2016-11-19T01:29:05.907Z,53.45
2016-11-19T01:30:05.968Z,53.55
2016-11-19T01:31:05.661Z,53.45
2016-11-19T01:32:05.685Z,53.45
2016-11-19T01:33:06.027Z,53.45
2016-11-19T01:34:05.744Z,53.45
2016-11-19T01:35:06.084Z,53.19
2016-11-19T01:36:06.092Z,53.55
2016-11-19T01:37:06.133Z,53.77
2016-11-19T01:38:06.162Z,53.55
2016-11-19T01:39:05.891Z,53.55
2016-11-19T01:40:05.907Z,53.58
2016-11-19T01:41:06.241Z,53.19
2016-11-19T01:42:06.273Z,53.17
2016-11-19T01:43:06.306Z,53.65
2016-11-19T01:44:06.319Z,53.36
2016-11-19T01:45:06.363Z,53.36
2016-11-19T01:46:06.377Z,53.45
2016-11-19T01:47:06.418Z,53.36
2016-11-19T01:48:06.125Z,53.65
2016-11-19T01:49:06.458Z,53.39
2016-11-19T01:50:06.484Z,53.65
2016-11-19T01:51:06.519Z,53.36
2016-11-19T01:52:06.540Z,53.29
2016-11-19T01:53:06.569Z,53.36
2016-11-19T01:54:06.597Z,53.27
2016-11-19T01:55:06.626Z,53.45
2016-11-19T01:56:06.655Z,53.36
2016-11-19T01:57:06.692Z,53.27
2016-11-19T01:58:06.716Z,53.27
2016-11-19T01:59:06.746Z,53.65
2016-11-19T02:00:06.753Z,53.65
2016-11-19T02:01:06.801Z,53.45
2016-11-19T02:02:06.543Z,53.45
2016-11-19T02:03:06.848Z,53.36
2016-11-19T02:04:06.572Z,53.45
2016-11-19T02:05:06.903Z,53.55
2016-11-19T02:06:06.929Z,53.36
2016-11-19T02:07:06.962Z,53.36
2016-11-19T02:08:06.979Z,53.65
2016-11-19T02:09:07.016Z,53.36
2016-11-19T02:10:07.032Z,53.36
2016-11-19T02:11:07.068Z,53.27
2016-11-19T02:12:07.101Z,53.36
2016-11-19T02:13:07.122Z,53.17
2016-11-19T02:14:07.147Z,53.45
2016-11-19T02:15:07.196Z,53.36
2016-11-19T02:16:07.193Z,53.55
2016-11-19T02:17:06.924Z,53.45
2016-11-19T02:18:07.250Z,53.36
2016-11-19T02:19:07.282Z,53.36
2016-11-19T02:20:07.324Z,53.36
2016-11-19T02:21:07.031Z,53.36
2016-11-19T02:22:07.377Z,53.45
2016-11-19T02:23:07.381Z,53.27
2016-11-19T02:24:07.114Z,53.36
2016-11-19T02:25:07.455Z,53.45
2016-11-19T02:26:07.472Z,53.27
2016-11-19T02:27:07.504Z,53.27
2016-11-19T02:28:07.529Z,53.36
2016-11-19T02:29:07.566Z,53.36
2016-11-19T02:30:07.587Z,53.36
2016-11-19T02:31:07.312Z,53.45
2016-11-19T02:32:07.653Z,53.36
2016-11-19T02:33:07.678Z,53.55
2016-11-19T02:34:07.694Z,53.36
2016-11-19T02:35:07.736Z,53.55
2016-11-19T02:36:07.747Z,53.45
2016-11-19T02:37:07.479Z,53.45
2016-11-19T02:38:07.796Z,53.36
2016-11-19T02:39:07.833Z,53.45
2016-11-19T02:40:07.859Z,53.55
2016-11-19T02:41:07.888Z,53.36
2016-11-19T02:42:07.608Z,53.45
2016-11-19T02:43:07.648Z,53.45
2016-11-19T02:44:07.963Z,53.45
2016-11-19T02:45:08.001Z,53.45
2016-11-19T02:46:07.725Z,53.45
2016-11-19T02:47:07.762Z,53.45
2016-11-19T02:48:07.774Z,53.45
2016-11-19T02:49:07.802Z,53.45
2016-11-19T02:50:08.133Z,53.45
2016-11-19T02:51:07.863Z,53.65
2016-11-19T02:52:08.193Z,53.45
2016-11-19T02:53:07.908Z,53.45
2016-11-19T02:54:08.235Z,53.45
2016-11-19T02:55:08.274Z,53.36
2016-11-19T02:56:08.011Z,53.27
2016-11-19T02:57:08.035Z,53.74
2016-11-19T02:58:08.352Z,53.65
2016-11-19T02:59:08.384Z,53.55
2016-11-19T03:00:08.401Z,53.65
2016-11-19T03:01:08.436Z,53.74
2016-11-19T03:02:08.470Z,53.74
2016-11-19T03:03:08.191Z,53.27
2016-11-19T03:04:08.520Z,53.65
2016-11-19T03:05:08.237Z,53.55
2016-11-19T03:06:08.574Z,53.55
2016-11-19T03:07:08.290Z,53.55
2016-11-19T03:08:08.332Z,53.55
2016-11-19T03:09:08.655Z,53.65
2016-11-19T03:10:08.676Z,53.45
2016-11-19T03:11:08.714Z,53.45
2016-11-19T03:12:08.737Z,53.65
2016-11-19T03:13:08.458Z,53.84
2016-11-19T03:14:08.791Z,53.74
2016-11-19T03:15:08.519Z,52.97
2016-11-19T03:16:08.844Z,53.74
2016-11-19T03:17:08.868Z,53.74
2016-11-19T03:18:08.906Z,52.97
2016-11-19T03:19:08.931Z,52.97
2016-11-19T03:20:08.652Z,53.74
2016-11-19T03:21:08.993Z,52.97
2016-11-19T03:22:09.001Z,53.36
2016-11-19T03:23:09.049Z,53.27
2016-11-19T03:24:08.762Z,53.74
2016-11-19T03:25:09.099Z,53.84
2016-11-19T03:26:09.120Z,53.36
2016-11-19T03:27:09.138Z,53.27
2016-11-19T03:28:08.865Z,53.36
2016-11-19T03:29:09.210Z,53.45
2016-11-19T03:30:09.230Z,53.74
2016-11-19T03:31:09.251Z,53.74
2016-11-19T03:32:08.976Z,52.97
2016-11-19T03:33:09.013Z,53.27
2016-11-19T03:34:09.345Z,53.17
2016-11-19T03:35:09.062Z,53.27
2016-11-19T03:36:09.394Z,53.45
2016-11-19T03:37:09.419Z,53.65
2016-11-19T03:38:09.148Z,53.27
2016-11-19T03:39:09.480Z,53.65
2016-11-19T03:40:09.503Z,53.36
2016-11-19T03:41:09.530Z,53.36
2016-11-19T03:42:09.555Z,53.45
2016-11-19T03:43:09.591Z,53.36
2016-11-19T03:44:09.608Z,53.45
2016-11-19T03:45:09.641Z,53.27
2016-11-19T03:46:09.665Z,53.27
2016-11-19T03:47:09.389Z,53.27
2016-11-19T03:48:09.418Z,53.07
2016-11-19T03:49:09.448Z,53.36
2016-11-19T03:50:09.472Z,52.78
2016-11-19T03:51:09.493Z,53.36
2016-11-19T03:52:09.826Z,53.07
2016-11-19T03:53:09.858Z,53.17
2016-11-19T03:54:09.584Z,52.97
2016-11-19T03:55:09.912Z,52.69
2016-11-19T03:56:09.633Z,52.78
2016-11-19T03:57:09.966Z,52.97
2016-11-19T03:58:09.688Z,52.78
2016-11-19T03:59:10.015Z,52.97
2016-11-19T04:00:09.752Z,52.78
2016-11-19T04:01:10.077Z,52.69
2016-11-19T04:02:10.102Z,52.78
2016-11-19T04:03:10.130Z,52.87
2016-11-19T04:04:10.159Z,52.78
2016-11-19T04:05:10.184Z,52.78
2016-11-19T04:06:10.215Z,52.87
2016-11-19T04:07:10.245Z,52.97
2016-11-19T04:08:10.272Z,52.78
2016-11-19T04:09:10.298Z,52.97
2016-11-19T04:10:10.323Z,52.87
2016-11-19T04:11:10.348Z,52.87
2016-11-19T04:12:10.393Z,52.69
2016-11-19T04:13:10.413Z,52.97
2016-11-19T04:14:10.439Z,52.97
2016-11-19T04:15:10.459Z,52.87
2016-11-19T04:16:10.493Z,52.97
2016-11-19T04:17:10.209Z,52.78
2016-11-19T04:18:10.233Z,52.78
2016-11-19T04:19:10.566Z,52.97
2016-11-19T04:20:10.595Z,52.87
2016-11-19T04:21:10.315Z,52.87
2016-11-19T04:22:10.644Z,52.97
2016-11-19T04:23:10.681Z,52.87
2016-11-19T04:24:10.701Z,53.07
2016-11-19T04:25:10.738Z,52.69
2016-11-19T04:26:10.459Z,52.78
2016-11-19T04:27:10.784Z,52.97
2016-11-19T04:28:10.817Z,52.97
2016-11-19T04:29:10.841Z,52.69
2016-11-19T04:30:10.870Z,52.69
2016-11-19T04:31:10.895Z,52.97
2016-11-19T04:32:10.927Z,52.69
2016-11-19T04:33:10.948Z,52.69
2016-11-19T04:34:10.673Z,52.97
2016-11-19T04:35:11.009Z,52.85
2016-11-19T04:36:11.031Z,52.87
2016-11-19T04:37:11.058Z,53.05
2016-11-19T04:38:10.783Z,53.07
2016-11-19T04:39:11.118Z,53.07
2016-11-19T04:40:11.145Z,52.95
2016-11-19T04:41:10.874Z,52.87
2016-11-19T04:42:11.195Z,52.87
2016-11-19T04:43:10.928Z,53.14
2016-11-19T04:44:10.960Z,53.05
2016-11-19T04:45:11.280Z,52.97
2016-11-19T04:46:11.002Z,53.07
2016-11-19T04:47:11.038Z,52.87
2016-11-19T04:48:11.051Z,52.87
2016-11-19T04:49:11.088Z,53.14
2016-11-19T04:50:11.413Z,53.17
2016-11-19T04:51:11.437Z,53.17
2016-11-19T04:52:11.469Z,53.17
2016-11-19T04:53:11.499Z,53.17
2016-11-19T04:54:11.221Z,53.17
2016-11-19T04:55:11.550Z,53.17
2016-11-19T04:56:11.273Z,53.17
2016-11-19T04:57:11.606Z,53.07
2016-11-19T04:58:11.638Z,52.97
2016-11-19T04:59:11.370Z,53.17
2016-11-19T05:00:11.400Z,53.17
2016-11-19T05:01:11.409Z,53.17
2016-11-19T05:02:11.749Z,53.05
2016-11-19T05:03:11.761Z,53.14
2016-11-19T05:04:11.495Z,53.07
2016-11-19T05:05:11.823Z,52.75
2016-11-19T05:06:11.852Z,53.23
2016-11-19T05:07:11.573Z,52.97
2016-11-19T05:08:11.909Z,52.95
2016-11-19T05:09:11.934Z,52.95
2016-11-19T05:10:11.962Z,52.95
2016-11-19T05:11:11.694Z,53.05
2016-11-19T05:12:12.012Z,52.66
2016-11-19T05:13:11.736Z,52.66
2016-11-19T05:14:12.069Z,53.14
2016-11-19T05:15:12.099Z,53.14
2016-11-19T05:16:11.819Z,53.05
2016-11-19T05:17:12.148Z,52.85
2016-11-19T05:18:12.180Z,53.14
2016-11-19T05:19:12.205Z,53.05
2016-11-19T05:20:12.234Z,53.05
2016-11-19T05:21:11.954Z,53.05
2016-11-19T05:22:12.287Z,52.95
2016-11-19T05:23:12.316Z,52.85
2016-11-19T05:24:12.036Z,52.97
2016-11-19T05:25:12.362Z,53.05
2016-11-19T05:26:12.395Z,52.95
2016-11-19T05:27:12.427Z,53.05
2016-11-19T05:28:12.448Z,53.14
2016-11-19T05:29:12.171Z,52.97
2016-11-19T05:30:12.505Z,52.85
2016-11-19T05:31:12.522Z,52.85
2016-11-19T05:32:12.255Z,53.05
2016-11-19T05:33:12.595Z,52.78
2016-11-19T05:34:12.300Z,52.66
2016-11-19T05:35:12.637Z,52.66
2016-11-19T05:36:12.666Z,52.59
2016-11-19T05:37:12.695Z,52.49
2016-11-19T05:38:12.414Z,52.59
2016-11-19T05:39:12.760Z,52.4
2016-11-19T05:40:12.477Z,52.4
2016-11-19T05:41:12.805Z,52.59
2016-11-19T05:42:12.530Z,52.49
2016-11-19T05:43:12.861Z,52.87
2016-11-19T05:44:12.599Z,52.69
2016-11-19T05:45:12.924Z,52.2
2016-11-19T05:46:12.936Z,52.2
2016-11-19T05:47:12.973Z,52.3
2016-11-19T05:48:12.691Z,52.3
2016-11-19T05:49:13.027Z,52.2
2016-11-19T05:50:13.056Z,52.11
2016-11-19T05:51:13.068Z,52.2
2016-11-19T05:52:12.797Z,52.11
2016-11-19T05:53:13.129Z,52.01
2016-11-19T05:54:12.846Z,52.3
2016-11-19T05:55:12.879Z,52.11
2016-11-19T05:56:13.212Z,52.11
2016-11-19T05:57:13.236Z,52.2
2016-11-19T05:58:12.953Z,52.11
2016-11-19T05:59:13.289Z,52.4
2016-11-19T06:00:13.326Z,52.3
2016-11-19T06:01:13.040Z,51.92
2016-11-19T06:02:13.076Z,51.82
2016-11-19T06:03:13.092Z,51.84
2016-11-19T06:04:13.129Z,51.53
2016-11-19T06:05:13.460Z,51.75
2016-11-19T06:06:13.486Z,51.65
2016-11-19T06:07:13.518Z,51.75
2016-11-19T06:08:13.539Z,51.75
2016-11-19T06:09:13.255Z,51.84
2016-11-19T06:10:13.588Z,51.75
2016-11-19T06:11:13.621Z,51.75
2016-11-19T06:12:13.650Z,51.75
2016-11-19T06:13:13.691Z,51.75
2016-11-19T06:14:13.698Z,51.75
2016-11-19T06:15:13.736Z,51.75
2016-11-19T06:16:13.760Z,51.75
2016-11-19T06:17:13.788Z,51.56
2016-11-19T06:18:13.805Z,51.65
2016-11-19T06:19:13.840Z,51.65
2016-11-19T06:20:13.564Z,52.04
2016-11-19T06:21:13.895Z,51.56
2016-11-19T06:22:13.924Z,51.94
2016-11-19T06:23:13.965Z,51.84
2016-11-19T06:24:13.977Z,51.56
2016-11-19T06:25:14.010Z,51.36
2016-11-19T06:26:14.034Z,51.26
2016-11-19T06:27:13.755Z,51.46
2016-11-19T06:28:14.086Z,51.17
2016-11-19T06:29:13.808Z,51.26
2016-11-19T06:30:13.829Z,51.36
2016-11-19T06:31:14.159Z,51.26
2016-11-19T06:32:13.894Z,51.36
2016-11-19T06:33:14.231Z,51.56
2016-11-19T06:34:13.939Z,51.36
2016-11-19T06:35:14.272Z,51.17
2016-11-19T06:36:14.297Z,51.17
2016-11-19T06:37:14.346Z,51.17
2016-11-19T06:38:14.381Z,51.17
2016-11-19T06:39:14.395Z,51.26
2016-11-19T06:40:14.423Z,50.98
2016-11-19T06:41:14.444Z,50.88
2016-11-19T06:42:14.165Z,51.17
2016-11-19T06:43:14.197Z,51.17
2016-11-19T06:44:14.518Z,51.17
2016-11-19T06:45:14.547Z,51.07
2016-11-19T06:46:14.580Z,51.07
2016-11-19T06:47:14.613Z,51.1
2016-11-19T06:48:14.330Z,51.17
2016-11-19T06:49:14.360Z,51.2
2016-11-19T06:50:14.377Z,51.36
2016-11-19T06:51:14.719Z,51.29
2016-11-19T06:52:14.751Z,51.1
2016-11-19T06:53:14.472Z,51.17
2016-11-19T06:54:14.501Z,51.39
2016-11-19T06:55:14.853Z,51.29
2016-11-19T06:56:14.862Z,51.1
2016-11-19T06:57:14.578Z,51.58
2016-11-19T06:58:14.608Z,51.39
2016-11-19T06:59:14.944Z,51.39
2016-11-19T07:00:14.968Z,51.39
2016-11-19T07:01:14.688Z,51.29
2016-11-19T07:02:14.718Z,51.1
2016-11-19T07:03:15.055Z,50.81
2016-11-19T07:04:15.075Z,51.2
2016-11-19T07:05:15.116Z,50.71
2016-11-19T07:06:15.124Z,50.9
2016-11-19T07:07:15.170Z,50.81
2016-11-19T07:08:15.182Z,50.81
2016-11-19T07:09:15.211Z,50.81
2016-11-19T07:10:15.240Z,51
2016-11-19T07:11:15.267Z,51.2
2016-11-19T07:12:15.297Z,51
2016-11-19T07:13:15.013Z,50.9
2016-11-19T07:14:15.342Z,51
2016-11-19T07:15:15.391Z,51.2
2016-11-19T07:16:15.098Z,50.9
2016-11-19T07:17:15.145Z,50.9
2016-11-19T07:18:15.460Z,50.42
2016-11-19T07:19:15.498Z,51.1
2016-11-19T07:20:15.523Z,51.1
2016-11-19T07:21:15.556Z,50.71
2016-11-19T07:22:15.265Z,50.62
2016-11-19T07:23:15.301Z,50.52
2016-11-19T07:24:15.321Z,50.42
2016-11-19T07:25:15.345Z,50.42
2016-11-19T07:26:15.683Z,50.52
2016-11-19T07:27:15.713Z,50.32
2016-11-19T07:28:15.741Z,50.52
2016-11-19T07:29:15.470Z,50.23
2016-11-19T07:30:15.791Z,50.23
2016-11-19T07:31:15.824Z,50.23
2016-11-19T07:32:15.856Z,50.13
2016-11-19T07:33:15.877Z,50.13
2016-11-19T07:34:15.906Z,50.32
2016-11-19T07:35:15.938Z,50.32
2016-11-19T07:36:15.959Z,50.13
2016-11-19T07:37:16.001Z,50.23
2016-11-19T07:38:16.013Z,50.23
2016-11-19T07:39:16.053Z,50.13
2016-11-19T07:40:15.766Z,50.32
2016-11-19T07:41:16.106Z,50.32
2016-11-19T07:42:16.155Z,50.42
2016-11-19T07:43:16.169Z,50.23
2016-11-19T07:44:16.185Z,50.45
2016-11-19T07:45:15.910Z,50.32
2016-11-19T07:46:15.931Z,50.23
2016-11-19T07:47:16.288Z,50.23
2016-11-19T07:48:16.297Z,50.23
2016-11-19T07:49:16.342Z,50.13
2016-11-19T07:50:16.054Z,50.13
2016-11-19T07:51:16.395Z,50.32
2016-11-19T07:52:16.107Z,50.13
2016-11-19T07:53:16.437Z,50.23
2016-11-19T07:54:16.462Z,50.13
2016-11-19T07:55:16.493Z,50.32
2016-11-19T07:56:16.516Z,50.32
2016-11-19T07:57:16.551Z,50.13
2016-11-19T07:58:16.580Z,50.13
2016-11-19T07:59:16.617Z,50.32
2016-11-19T08:00:16.626Z,50.32
2016-11-19T08:01:16.668Z,50.42
2016-11-19T08:02:16.387Z,50.62
2016-11-19T08:03:16.720Z,50.62
2016-11-19T08:04:16.737Z,50.52
2016-11-19T08:05:16.770Z,50.71
2016-11-19T08:06:16.495Z,50.23
2016-11-19T08:07:16.836Z,50.62
2016-11-19T08:08:16.544Z,50.9
2016-11-19T08:09:16.893Z,50.32
2016-11-19T08:10:16.915Z,51.29
2016-11-19T08:11:16.953Z,50.9
2016-11-19T08:12:16.659Z,51.1
2016-11-19T08:13:16.697Z,51.2
2016-11-19T08:14:17.037Z,51.1
2016-11-19T08:15:17.056Z,50.9
2016-11-19T08:16:16.770Z,51
2016-11-19T08:17:17.111Z,51
2016-11-19T08:18:17.132Z,50.88
2016-11-19T08:19:17.159Z,50.88
2016-11-19T08:20:17.184Z,50.98
2016-11-19T08:21:17.230Z,50.98
2016-11-19T08:22:17.335Z,51.1
2016-11-19T08:23:17.276Z,50.98
2016-11-19T08:24:17.288Z,51.07
2016-11-19T08:25:17.322Z,50.98
2016-11-19T08:26:17.358Z,51.07
2016-11-19T08:27:17.375Z,51.17
2016-11-19T08:28:17.409Z,50.88
2016-11-19T08:29:17.128Z,50.88
2016-11-19T08:30:17.468Z,50.78
2016-11-19T08:31:17.490Z,50.78
2016-11-19T08:32:17.211Z,50.78
2016-11-19T08:33:17.543Z,50.78
2016-11-19T08:34:17.580Z,51.17
2016-11-19T08:35:17.609Z,50.88
2016-11-19T08:36:17.626Z,50.88
2016-11-19T08:37:17.661Z,50.88
2016-11-19T08:38:17.683Z,50.78
2016-11-19T08:39:17.724Z,50.88
2016-11-19T08:40:17.749Z,50.88
2016-11-19T08:41:17.785Z,51.46
2016-11-19T08:42:17.790Z,50.98
2016-11-19T08:43:17.834Z,50.88
2016-11-19T08:44:17.551Z,50.78
2016-11-19T08:45:17.896Z,51.36
2016-11-19T08:46:17.913Z,50.78
2016-11-19T08:47:17.640Z,50.88
2016-11-19T08:48:17.962Z,51.46
2016-11-19T08:49:17.695Z,51.26
2016-11-19T08:50:18.019Z,51.07
2016-11-19T08:51:18.049Z,51.46
2016-11-19T08:52:17.758Z,50.88
2016-11-19T08:53:18.107Z,51.36
2016-11-19T08:54:17.827Z,50.98
2016-11-19T08:55:17.855Z,51.26
2016-11-19T08:56:18.188Z,51.36
2016-11-19T08:57:18.216Z,51.36
2016-11-19T08:58:18.242Z,51.26
2016-11-19T08:59:18.266Z,51.26
2016-11-19T09:00:18.295Z,50.59
2016-11-19T09:01:18.323Z,49.73
2016-11-19T09:02:18.349Z,48.66
2016-11-19T09:03:18.381Z,49.05
2016-11-19T09:04:18.410Z,48.47
2016-11-19T09:05:18.431Z,47.87
2016-11-19T09:06:18.464Z,48.25
2016-11-19T09:07:18.497Z,47.87
2016-11-19T09:08:18.213Z,47.67
2016-11-19T09:09:18.554Z,46.71
2016-11-19T09:10:18.578Z,45.75
2016-11-19T09:11:18.608Z,46.91
2016-11-19T09:12:18.624Z,47.36
2016-11-19T09:13:18.661Z,48.16
2016-11-19T09:14:18.385Z,47.87
2016-11-19T09:15:18.414Z,47.58
2016-11-19T09:16:18.743Z,48.35
2016-11-19T09:17:18.781Z,48.35
2016-11-19T09:18:18.793Z,48.52
2016-11-19T09:19:18.521Z,48.23
2016-11-19T09:20:18.858Z,48.03
2016-11-19T09:21:18.879Z,48.35
2016-11-19T09:22:18.899Z,48.64
2016-11-19T09:23:18.932Z,48.25
2016-11-19T09:24:18.965Z,48.25
2016-11-19T09:25:18.994Z,48.44
2016-11-19T09:26:19.006Z,48.54
2016-11-19T09:27:19.071Z,48.93
2016-11-19T09:28:19.067Z,48.54
2016-11-19T09:29:18.801Z,49.02
2016-11-19T09:30:18.825Z,48.74
2016-11-19T09:31:18.850Z,48.74
2016-11-19T09:32:19.183Z,48.54
2016-11-19T09:33:19.203Z,48.74
2016-11-19T09:34:18.924Z,48.93
2016-11-19T09:35:19.256Z,48.93
2016-11-19T09:36:19.285Z,48.93
2016-11-19T09:37:19.314Z,49.12
2016-11-19T09:38:19.045Z,48.93
2016-11-19T09:39:19.067Z,49.02
2016-11-19T09:40:19.404Z,49.32
2016-11-19T09:41:19.121Z,49.12
2016-11-19T09:43:28.873Z,49.12
2016-11-19T09:44:29.170Z,48.93
2016-11-19T09:45:29.199Z,48.93
2016-11-19T09:46:29.219Z,48.74
2016-11-19T09:47:29.253Z,49.22
2016-11-19T09:48:29.284Z,49.12
2016-11-19T09:49:29.297Z,48.93
2016-11-19T09:50:29.034Z,49.6
2016-11-19T09:51:29.062Z,49.6
2016-11-19T09:52:29.391Z,49.6
2016-11-19T09:54:29.436Z,49.6
2016-11-19T09:55:29.477Z,49.51
2016-11-19T09:56:29.510Z,49.22
2016-11-19T09:57:29.526Z,49.41
2016-11-19T09:58:29.554Z,49.6
2016-11-19T09:59:29.583Z,49.6
2016-11-19T10:00:29.612Z,49.7
2016-11-19T10:01:29.640Z,49.89
2016-11-19T10:02:29.366Z,49.6
2016-11-19T10:03:29.414Z,50.09
2016-11-19T10:04:29.714Z,49.89
2016-11-19T10:05:29.443Z,49.6
2016-11-19T10:06:29.772Z,49.7
2016-11-19T10:07:29.796Z,50.27
2016-11-19T10:08:29.835Z,49.12
2016-11-19T10:09:29.557Z,50.09
2016-11-19T10:10:29.882Z,50.18
2016-11-19T10:11:29.907Z,49.7
2016-11-19T10:12:29.944Z,49.79
2016-11-19T10:13:29.964Z,50.09
2016-11-19T10:14:29.689Z,50.09
2016-11-19T10:15:30.017Z,49.99
2016-11-19T10:16:29.746Z,49.99
2016-11-19T10:17:30.072Z,50.09
2016-11-19T10:18:30.103Z,49.99
2016-11-19T10:19:29.824Z,50.09
2016-11-19T10:20:30.158Z,50.09
2016-11-19T10:21:30.188Z,49.89
2016-11-19T10:22:30.212Z,50.09
2016-11-19T10:23:30.243Z,50.09
2016-11-19T10:24:30.272Z,50.18
2016-11-19T10:25:30.308Z,50.18
2016-11-19T10:26:30.321Z,49.79
2016-11-19T10:27:30.041Z,49.99
2016-11-19T10:28:30.378Z,50.47
2016-11-19T10:29:30.407Z,50.27
2016-11-19T10:30:30.431Z,49.99
2016-11-19T10:31:30.157Z,50.57
2016-11-19T10:32:30.493Z,50.18
2016-11-19T10:33:30.521Z,49.32
2016-11-19T10:34:30.534Z,48.95
2016-11-19T10:35:30.567Z,49.02
2016-11-19T10:36:30.600Z,49.43
2016-11-19T10:37:30.620Z,49.89
2016-11-19T10:38:30.649Z,48.83
2016-11-19T10:39:30.678Z,49.32
2016-11-19T10:40:30.719Z,49.15
2016-11-19T10:41:30.735Z,49.32
2016-11-19T10:42:30.756Z,49.6
2016-11-19T10:43:30.785Z,49.6
2016-11-19T10:44:30.509Z,49.51
2016-11-19T10:45:30.850Z,49.51
2016-11-19T10:46:30.871Z,49.63
2016-11-19T10:47:30.900Z,47.97
2016-11-19T10:48:30.931Z,49.12
2016-11-19T10:49:30.954Z,49.02
2016-11-19T10:50:30.982Z,49.12
2016-11-19T10:51:31.016Z,48.93
2016-11-19T10:52:31.042Z,48.83
2016-11-19T10:53:31.075Z,49.99
2016-11-19T10:54:31.092Z,48.83
2016-11-19T10:55:31.120Z,48.66
2016-11-19T10:56:30.841Z,48.93
2016-11-19T10:57:31.165Z,47.67
2016-11-19T10:58:31.206Z,48.16
2016-11-19T10:59:31.247Z,48.64
2016-11-19T11:00:31.256Z,48.54
2016-11-19T11:01:31.292Z,48.54
2016-11-19T11:02:31.325Z,47.97
2016-11-19T11:03:31.344Z,48.06
2016-11-19T11:04:31.362Z,47.58
2016-11-19T11:05:31.403Z,48.76
2016-11-19T11:06:31.423Z,47.97
2016-11-19T11:07:31.444Z,48.66
2016-11-19T11:08:31.473Z,49.43
2016-11-19T11:09:31.509Z,48.66
2016-11-19T11:10:31.538Z,48.57
2016-11-19T11:11:31.554Z,49.15
2016-11-19T11:12:31.591Z,49.53
2016-11-19T11:13:31.616Z,48.57
2016-11-19T11:14:31.636Z,49.05
2016-11-19T11:15:31.677Z,47.41
2016-11-19T11:16:31.394Z,47.89
2016-11-19T11:17:31.734Z,47.99
2016-11-19T11:18:31.755Z,47.51
2016-11-19T11:19:31.472Z,48.57
2016-11-19T11:20:31.809Z,48.47
2016-11-19T11:21:31.835Z,48.57
2016-11-19T11:22:31.575Z,47.41
2016-11-19T11:23:31.886Z,48.08
2016-11-19T11:24:31.611Z,47.51
2016-11-19T11:25:31.951Z,47.44
2016-11-19T11:26:31.976Z,47.31
2016-11-19T11:27:31.701Z,46.93
2016-11-19T11:28:32.026Z,44.73
2016-11-19T11:29:31.747Z,46.47
2016-11-19T11:30:32.090Z,47.63
2016-11-19T11:31:32.119Z,47.14
2016-11-19T11:32:32.144Z,47.05
2016-11-19T11:33:32.169Z,47.34
2016-11-19T11:34:32.194Z,46.28
2016-11-19T11:35:32.222Z,47.05
2016-11-19T11:36:32.255Z,45.99
2016-11-19T11:37:31.980Z,46.37
2016-11-19T11:38:32.299Z,46.37
2016-11-19T11:39:32.331Z,45.31
2016-11-19T11:40:32.365Z,46.28
2016-11-19T11:41:32.082Z,45.7
2016-11-19T11:42:32.418Z,46.47
2016-11-19T11:43:32.455Z,47.72
2016-11-19T11:44:32.483Z,47.14
2016-11-19T11:45:32.501Z,47.34
2016-11-19T11:46:32.525Z,47.14
2016-11-19T11:47:32.573Z,46.86
2016-11-19T11:48:32.587Z,45.92
2016-11-19T11:49:32.619Z,46.37
2016-11-19T11:50:32.649Z,46.56
2016-11-19T11:51:32.673Z,46.28
2016-11-19T11:52:32.393Z,46.66
2016-11-19T11:53:32.422Z,47.34
2016-11-19T11:54:32.458Z,45.89
2016-11-19T11:55:32.783Z,46.37
2016-11-19T11:56:32.804Z,46.95
2016-11-19T11:57:32.532Z,46.95
2016-11-19T11:58:32.873Z,47.05
2016-11-19T11:59:32.894Z,47.34
2016-11-19T12:00:32.919Z,46.37
2016-11-19T12:01:32.939Z,46.3
2016-11-19T12:02:32.972Z,46.08
2016-11-19T12:03:33.001Z,46.47
2016-11-19T12:04:33.042Z,46.95
2016-11-19T12:05:33.071Z,45.99
2016-11-19T12:06:33.087Z,45.6
2016-11-19T12:07:33.112Z,46.28
2016-11-19T12:08:33.149Z,45.89
2016-11-19T12:09:33.165Z,46.08
2016-11-19T12:10:33.214Z,45.79
2016-11-19T12:11:32.923Z,46.47
2016-11-19T12:12:33.259Z,45.89
2016-11-19T12:13:33.288Z,46.28
2016-11-19T12:14:33.017Z,45.99
2016-11-19T12:15:33.337Z,45.79
2016-11-19T12:16:33.371Z,47.05
2016-11-19T12:17:33.399Z,47.14
2016-11-19T12:18:33.420Z,47.92
2016-11-19T12:19:33.444Z,47.24
2016-11-19T12:20:33.483Z,47.63
2016-11-19T12:21:33.501Z,47.63
2016-11-19T12:22:33.531Z,47.53
2016-11-19T12:23:33.256Z,48.11
2016-11-19T12:24:33.596Z,48.21
2016-11-19T12:25:33.626Z,48.49
2016-11-19T12:26:33.649Z,48.59
2016-11-19T12:27:33.675Z,48.79
2016-11-19T12:28:33.704Z,47.05
2016-11-19T12:29:33.732Z,48.47
2016-11-19T12:30:33.760Z,48.88
2016-11-19T12:31:33.809Z,47.31
2016-11-19T12:32:33.822Z,47.8
2016-11-19T12:33:33.843Z,48.66
2016-11-19T12:34:33.875Z,49.43
2016-11-19T12:35:33.897Z,48.76
2016-11-19T12:36:33.933Z,48.57
2016-11-19T12:37:33.953Z,48.59
2016-11-19T12:38:33.674Z,48.28
2016-11-19T12:39:34.019Z,48.95
2016-11-19T12:40:34.039Z,48.86
2016-11-19T12:41:34.063Z,49.05
2016-11-19T12:42:33.797Z,47.6
2016-11-19T12:43:34.134Z,47.99
2016-11-19T12:44:34.151Z,48.66
2016-11-19T12:45:34.188Z,48.76
2016-11-19T12:46:34.202Z,48.95
2016-11-19T12:47:34.245Z,48.66
2016-11-19T12:48:34.260Z,49.43
2016-11-19T12:49:33.982Z,48.66
2016-11-19T12:50:34.022Z,49.15
2016-11-19T12:51:34.347Z,48.57
2016-11-19T12:52:34.384Z,49.05
2016-11-19T12:53:34.400Z,48.86
2016-11-19T12:54:34.133Z,48.76
2016-11-19T12:55:34.457Z,47.03
2016-11-19T12:56:34.479Z,47.03